Terminal Aerodrome Forecast
Issued by NWS

Home | Current Version | Previous Version | Text Only | Print | Product List | Glossary On
Versions: 1 2 3 4 5 6 7 8 9 10 11 12 13 14 15 16 17 18 19 20 21
000
FTUS43 KJKL 232339
TAFSME
TAF
KSME 232339Z 2400/2424 VRB05KT P6SM VCTS SCT045CB
     FM240300 VRB03KT P6SM BKN050
     FM240700 VRB03KT 4SM BR SCT060
     FM241300 VRB03KT P6SM SCT120=

USA.gov is the U.S. government's official web portal to all federal, state and local government web resources and services.